Time;durP1;ratioP1;P1;durP2;ratioP2;P2;SDS_P1;SDS_P2;PMS_P1;PMS_P2;Temp;Humidity;BMP_temperature;BMP_pressure;BME280_temperature;BME280_humidity;BME280_pressure;Samples;Min_cycle;Max_cycle;Signal;HPM_P1;HPM_P2
2022/01/24 00:01:05;;;;;;;7.80;4.65;;;;;;;3.64;100.00;102046.47;5033332;28;20017;-72
2022/01/24 00:03:30;;;;;;;7.57;5.00;;;;;;;3.64;100.00;102046.47;5068292;22;20045;-86
2022/01/24 00:05:55;;;;;;;7.22;4.80;;;;;;;3.65;100.00;102042.09;5015146;28;20109;-85
2022/01/24 00:08:21;;;;;;;5.80;3.55;;;;;;;3.68;100.00;102043.06;5018818;28;20030;-88
2022/01/24 00:10:48;;;;;;;7.63;4.70;;;;;;;3.66;100.00;102044.75;5024946;28;20044;-89
2022/01/24 00:26:38;;;;;;;6.53;4.37;;;;;;;3.65;100.00;102037.69;5017397;28;19940;-88
2022/01/24 00:26:50;;;;;;;8.35;4.60;;;;;;;3.67;100.00;102041.28;5016031;28;19916;-89
2022/01/24 00:29:18;;;;;;;6.55;4.53;;;;;;;3.67;100.00;102045.66;5014608;28;20149;-88
2022/01/24 00:31:44;;;;;;;6.57;4.47;;;;;;;3.68;100.00;102051.00;5017635;28;20029;-87
2022/01/24 00:34:09;;;;;;;7.75;4.97;;;;;;;3.67;100.00;102046.56;5014995;28;20096;-88
2022/01/24 00:36:35;;;;;;;8.35;4.93;;;;;;;3.67;100.00;102046.56;5014615;28;20475;-88
2022/01/24 00:39:01;;;;;;;7.88;5.38;;;;;;;3.67;100.00;102049.19;5014796;28;20438;-88
2022/01/24 00:41:26;;;;;;;9.00;5.43;;;;;;;3.66;100.00;102047.41;5015954;28;20025;-87
2022/01/24 00:44:21;;;;;;;8.70;5.40;;;;;;;3.65;100.00;102043.00;5014694;28;20017;-88
2022/01/24 00:46:48;;;;;;;9.02;4.70;;;;;;;3.68;100.00;102037.78;5017024;28;20029;-88
2022/01/24 00:49:37;;;;;;;7.75;4.80;;;;;;;3.68;100.00;102035.16;5014778;28;20100;-88
2022/01/24 00:54:52;;;;;;;5.50;3.97;;;;;;;3.66;100.00;102035.97;5014464;28;20040;-88
2022/01/24 00:57:18;;;;;;;6.20;3.75;;;;;;;3.69;100.00;102039.56;5013762;28;20022;-87
2022/01/24 00:59:44;;;;;;;6.40;3.65;;;;;;;3.68;100.00;102040.44;5013414;28;20430;-86
2022/01/24 01:02:09;;;;;;;6.05;3.80;;;;;;;3.71;100.00;102033.44;5013445;28;20021;-88
2022/01/24 01:04:54;;;;;;;5.63;3.67;;;;;;;3.72;100.00;102041.41;5012690;28;20447;-88
2022/01/24 01:07:39;;;;;;;4.88;3.17;;;;;;;3.72;100.00;102043.13;5012656;28;20041;-87
2022/01/24 01:18:20;;;;;;;5.07;3.15;;;;;;;3.67;100.00;102038.63;5015004;28;20565;-87
2022/01/24 01:21:08;;;;;;;6.05;3.30;;;;;;;3.66;100.00;102039.47;5012788;28;20034;-87
2022/01/24 01:23:38;;;;;;;5.40;3.25;;;;;;;3.67;100.00;102036.00;5013103;28;20025;-87
2022/01/24 01:26:07;;;;;;;6.03;3.63;;;;;;;3.66;100.00;102034.19;5012530;28;20022;-88
2022/01/24 01:28:33;;;;;;;6.88;3.83;;;;;;;3.66;100.00;102034.19;5013247;28;20076;-87
2022/01/24 01:31:04;;;;;;;6.82;3.90;;;;;;;3.64;100.00;102030.63;5014193;28;20014;-87
2022/01/24 01:33:50;;;;;;;5.22;3.33;;;;;;;3.65;100.00;102024.50;5012470;28;20537;-87
2022/01/24 01:36:24;;;;;;;6.85;3.42;;;;;;;3.69;100.00;102029.00;5013243;28;20030;-87
2022/01/24 01:39:30;;;;;;;;;;;;;;;3.69;100.00;102028.09;5012721;28;20025;-87
2022/01/24 01:55:41;;;;;;;5.78;3.45;;;;;;;3.66;100.00;102028.91;5013516;28;20517;-88
2022/01/24 01:58:19;;;;;;;7.30;3.63;;;;;;;3.65;100.00;102018.31;5013065;28;20471;-87
2022/01/24 02:00:50;;;;;;;5.82;3.42;;;;;;;3.65;100.00;102021.84;5013289;28;20029;-87
2022/01/24 02:03:17;;;;;;;5.47;3.22;;;;;;;3.64;100.00;102019.16;5013574;28;20034;-88
2022/01/24 02:05:42;;;;;;;7.10;3.75;;;;;;;3.64;100.00;102013.88;5014192;28;20083;-88
2022/01/24 02:08:08;;;;;;;7.70;4.10;;;;;;;3.65;100.00;102016.56;5013606;28;20117;-87
2022/01/24 02:10:35;;;;;;;5.43;3.25;;;;;;;3.64;100.00;102020.06;5013905;28;20018;-87
2022/01/24 02:13:01;;;;;;;6.25;3.67;;;;;;;3.62;100.00;102012.94;5014656;28;20045;-88
2022/01/24 02:15:40;;;;;;;6.78;3.67;;;;;;;3.63;100.00;102017.38;5013700;28;20467;-87
2022/01/24 02:25:51;;;;;;;6.32;4.15;;;;;;;3.65;100.00;102019.22;5017556;28;20037;-87
2022/01/24 02:28:19;;;;;;;6.28;3.92;;;;;;;3.63;100.00;102018.28;5015758;28;20062;-87
2022/01/24 02:30:57;;;;;;;7.88;4.03;;;;;;;3.63;100.00;102018.28;5016247;28;20022;-86
2022/01/24 02:33:26;;;;;;;6.50;3.97;;;;;;;3.65;100.00;102013.94;5015789;28;20022;-87
2022/01/24 02:35:52;;;;;;;6.75;3.72;;;;;;;3.64;100.00;102006.84;5019349;28;20113;-88
2022/01/24 02:38:44;;;;;;;6.82;4.00;;;;;;;3.68;100.00;102016.66;5016649;28;20425;-87
2022/01/24 02:49:32;;;;;;;7.45;4.95;;;;;;;3.64;100.00;102008.56;5017003;28;20021;-87
2022/01/24 02:52:06;;;;;;;7.45;4.35;;;;;;;3.60;100.00;102004.97;5015237;28;20116;-87
2022/01/24 02:54:33;;;;;;;9.65;4.88;;;;;;;3.60;100.00;101998.78;5015248;28;20364;-86
2022/01/24 02:57:00;;;;;;;7.97;4.50;;;;;;;3.56;100.00;102006.63;5014968;28;20422;-88
2022/01/24 02:59:25;;;;;;;6.50;4.10;;;;;;;3.59;100.00;102000.53;5017043;28;20097;-87
2022/01/24 03:01:51;;;;;;;6.85;4.03;;;;;;;3.58;100.00;101996.13;5016326;28;20211;-88
2022/01/24 03:04:16;;;;;;;9.88;5.22;;;;;;;3.58;100.00;102004.06;5015002;28;20044;-88
2022/01/24 03:06:42;;;;;;;7.53;4.60;;;;;;;3.57;100.00;101997.88;5014576;28;20033;-87
2022/01/24 03:09:08;;;;;;;6.63;4.30;;;;;;;3.59;100.00;102000.53;5014752;28;20025;-87
2022/01/24 03:12:38;;;;;;;7.05;4.25;;;;;;;3.59;100.00;101987.31;5014893;28;20093;-88
2022/01/24 03:14:28;;;;;;;7.43;4.78;;;;;;;3.57;100.00;101981.13;5007978;28;20050;-87
2022/01/24 03:16:54;;;;;;;7.47;4.72;;;;;;;3.55;100.00;101978.44;5014845;28;20026;-87
2022/01/24 03:19:20;;;;;;;7.07;4.70;;;;;;;3.55;100.00;101986.38;5014450;28;20079;-87
2022/01/24 03:21:45;;;;;;;6.97;4.55;;;;;;;3.56;100.00;101981.97;5014529;28;20029;-86
2022/01/24 03:24:11;;;;;;;8.27;4.93;;;;;;;3.56;100.00;101974.03;5014529;28;20033;-87
2022/01/24 03:26:37;;;;;;;8.75;4.95;;;;;;;3.57;100.00;101970.56;5015920;28;20026;-87
2022/01/24 03:29:02;;;;;;;8.25;5.10;;;;;;;3.57;100.00;101975.84;5014643;28;20107;-87
2022/01/24 03:31:28;;;;;;;8.45;5.25;;;;;;;3.56;100.00;101980.22;5014474;28;20030;-87
2022/01/24 03:33:53;;;;;;;8.15;5.15;;;;;;;3.56;100.00;101984.59;5014808;28;20029;-87
2022/01/24 03:36:18;;;;;;;8.77;5.38;;;;;;;3.54;100.00;101978.38;5015685;28;20169;-87
2022/01/24 03:38:44;;;;;;;6.60;4.30;;;;;;;3.55;100.00;101982.84;5016899;28;20388;-86
2022/01/24 03:41:09;;;;;;;8.00;4.63;;;;;;;3.56;100.00;101985.50;5016514;28;20018;-88
2022/01/24 03:43:34;;;;;;;7.05;4.38;;;;;;;3.58;100.00;101983.78;5015027;28;20033;-87
2022/01/24 03:46:13;;;;;;;10.43;5.78;;;;;;;3.59;100.00;101979.41;5016089;28;20053;-87
2022/01/24 03:48:47;;;;;;;9.05;5.65;;;;;;;3.60;100.00;101978.56;5015788;28;20029;-87
2022/01/24 03:51:14;;;;;;;9.32;5.32;;;;;;;3.62;100.00;101983.88;5014032;28;20049;-87
2022/01/24 03:53:42;;;;;;;8.30;5.65;;;;;;;3.60;100.00;101975.91;5015354;28;20092;-87
2022/01/24 03:56:08;;;;;;;8.95;5.15;;;;;;;3.59;100.00;101979.41;5015361;28;20021;-87
2022/01/24 03:58:34;;;;;;;8.60;5.03;;;;;;;3.59;100.00;101982.03;5014067;28;20487;-86
2022/01/24 04:01:00;;;;;;;9.00;5.47;;;;;;;3.60;100.00;101981.22;5013730;28;20072;-87
2022/01/24 04:03:26;;;;;;;8.75;5.55;;;;;;;3.56;100.00;101974.03;5013441;28;20041;-87
2022/01/24 04:05:51;;;;;;;8.15;5.20;;;;;;;3.58;100.00;101977.63;5014932;28;20148;-87
2022/01/24 04:08:17;;;;;;;8.68;5.25;;;;;;;3.56;100.00;101968.75;5015245;28;20490;-86
2022/01/24 04:10:49;;;;;;;8.93;5.20;;;;;;;3.54;100.00;101976.66;5013576;28;20026;-87
2022/01/24 04:18:48;;;;;;;9.30;5.32;;;;;;;3.53;100.00;101973.97;5015559;28;20033;-87
2022/01/24 04:21:27;;;;;;;8.60;5.50;;;;;;;3.55;100.00;101972.25;5015057;28;20022;-87
2022/01/24 04:24:04;;;;;;;9.38;5.50;;;;;;;3.55;100.00;101972.25;5014348;28;20113;-88
2022/01/24 04:26:30;;;;;;;8.85;5.53;;;;;;;3.55;100.00;101980.19;5014958;28;20049;-87
2022/01/24 04:28:55;;;;;;;9.18;5.85;;;;;;;3.55;100.00;101982.84;5014955;28;20025;-86
2022/01/24 04:31:22;;;;;;;9.68;5.70;;;;;;;3.57;100.00;101981.13;5013394;28;20022;-87
2022/01/24 04:33:48;;;;;;;8.95;6.30;;;;;;;3.57;100.00;101975.84;5014734;28;20028;-87
2022/01/24 04:36:15;;;;;;;10.02;6.57;;;;;;;3.56;100.00;101976.69;5013115;28;20029;-86
2022/01/24 04:38:40;;;;;;;10.15;6.63;;;;;;;3.53;100.00;101973.97;5013095;28;20057;-87
2022/01/24 04:41:14;;;;;;;10.32;6.95;;;;;;;3.51;100.00;101966.00;5014286;28;20443;-86
2022/01/24 04:56:43;;;;;;;11.20;7.55;;;;;;;3.49;100.00;101967.69;5014565;28;20116;-86
2022/01/24 04:59:09;;;;;;;12.07;8.45;;;;;;;3.50;100.00;101973.88;5013028;28;20112;-87
2022/01/24 05:01:35;;;;;;;12.18;7.82;;;;;;;3.49;100.00;101967.69;5014330;28;20490;-87
2022/01/24 05:04:01;;;;;;;13.02;8.50;;;;;;;3.49;100.00;101964.16;5012555;28;20140;-85
2022/01/24 05:06:26;;;;;;;12.70;8.90;;;;;;;3.48;100.00;101962.41;5013827;28;20132;-87
2022/01/24 05:08:51;;;;;;;12.10;7.75;;;;;;;3.50;100.00;101958.03;5012359;28;20108;-86
2022/01/24 05:11:22;;;;;;;11.15;7.68;;;;;;;3.52;100.00;101958.97;5012993;28;20137;-87
2022/01/24 05:24:36;;;;;;;11.32;7.63;;;;;;;3.63;100.00;101964.53;5017088;28;20094;-85
2022/01/24 05:27:01;;;;;;;10.52;7.65;;;;;;;3.59;100.00;101960.91;5015575;28;20030;-86
2022/01/24 05:29:27;;;;;;;12.60;7.82;;;;;;;3.55;100.00;101966.97;5014882;28;20060;-86
2022/01/24 05:31:53;;;;;;;12.82;8.90;;;;;;;3.52;100.00;101966.91;5014952;28;20034;-85
2022/01/24 05:34:19;;;;;;;12.88;8.43;;;;;;;3.52;100.00;101956.31;5014809;28;20022;-85
2022/01/24 05:36:44;;;;;;;13.75;8.07;;;;;;;3.49;100.00;101957.13;5015063;28;20105;-85
2022/01/24 05:39:11;;;;;;;12.45;8.45;;;;;;;3.47;100.00;101958.84;5014724;28;20459;-86
2022/01/24 05:41:37;;;;;;;14.10;8.77;;;;;;;3.45;100.00;101961.44;5013412;28;20109;-86
2022/01/24 05:44:03;;;;;;;10.40;7.63;;;;;;;3.44;100.00;101951.75;5013791;28;20084;-86
2022/01/24 05:46:29;;;;;;;11.43;6.90;;;;;;;3.44;100.00;101959.66;5015069;28;20080;-85
2022/01/24 05:48:54;;;;;;;10.48;7.35;;;;;;;3.43;100.00;101956.97;5014681;28;20026;-85
2022/01/24 05:51:20;;;;;;;10.60;6.43;;;;;;;3.44;100.00;101958.75;5016356;28;20068;-86
2022/01/24 05:53:46;;;;;;;10.23;7.18;;;;;;;3.42;100.00;101953.44;5014576;28;20033;-85
2022/01/24 05:56:12;;;;;;;10.63;7.10;;;;;;;3.45;100.00;101950.88;5035346;28;20463;-83
2022/01/24 05:58:37;;;;;;;10.85;6.63;;;;;;;3.50;100.00;101955.41;5023489;28;20022;-83
2022/01/24 06:01:02;;;;;;;9.40;6.70;;;;;;;3.52;100.00;101953.69;5022104;28;20118;-83
2022/01/24 06:03:27;;;;;;;8.77;5.93;;;;;;;3.54;100.00;101955.50;5048370;22;20061;-83
2022/01/24 06:05:53;;;;;;;10.52;6.22;;;;;;;3.54;100.00;101949.31;5038018;28;20402;-81
2022/01/24 06:08:18;;;;;;;9.93;6.13;;;;;;;3.56;100.00;101942.34;5037739;28;20018;-82
2022/01/24 06:10:45;;;;;;;9.80;6.50;;;;;;;3.56;100.00;101948.53;5038101;28;20013;-82
2022/01/24 06:13:10;;;;;;;10.10;6.85;;;;;;;3.56;100.00;101948.53;5037527;28;20036;-82
2022/01/24 06:15:35;;;;;;;10.88;7.15;;;;;;;3.61;100.00;101946.00;5036055;28;20030;-83
2022/01/24 06:18:01;;;;;;;10.13;6.57;;;;;;;3.55;100.00;101945.84;5036330;28;20036;-83
2022/01/24 06:20:26;;;;;;;11.13;6.38;;;;;;;3.56;100.00;101947.63;5037499;28;20025;-81
2022/01/24 06:40:14;;;;;;;;;;;;;;;3.51;100.00;101962.44;4994535;28;20109;-85
2022/01/24 06:42:40;;;;;;;7.93;5.38;;;;;;;3.46;100.00;101957.06;5025275;28;20437;-85
2022/01/24 06:45:06;;;;;;;6.00;4.10;;;;;;;3.46;100.00;101963.22;5035451;28;20469;-84
2022/01/24 06:47:31;;;;;;;6.32;4.20;;;;;;;3.49;100.00;101966.81;5035402;28;20025;-82
2022/01/24 06:49:56;;;;;;;6.40;4.28;;;;;;;3.47;100.00;101966.78;5035522;28;20024;-83
2022/01/24 06:52:22;;;;;;;6.75;4.43;;;;;;;3.47;100.00;101974.69;5036551;28;20064;-82
2022/01/24 06:54:47;;;;;;;6.32;4.47;;;;;;;3.49;100.00;101969.44;5036745;28;20024;-87
2022/01/24 06:57:14;;;;;;;8.50;4.95;;;;;;;3.43;100.00;101963.16;5036785;28;20026;-87
2022/01/24 06:59:41;;;;;;;7.32;4.57;;;;;;;3.42;100.00;101971.94;5037205;28;20021;-89
2022/01/24 07:02:07;;;;;;;7.05;4.55;;;;;;;3.41;100.00;101970.13;5035205;28;20033;-87
2022/01/24 07:04:32;;;;;;;8.75;4.93;;;;;;;3.40;100.00;101968.34;5035032;28;20098;-87
2022/01/24 07:06:58;;;;;;;6.32;4.38;;;;;;;3.41;100.00;101972.78;5034559;28;20552;-87
2022/01/24 07:09:23;;;;;;;6.50;4.65;;;;;;;3.40;100.00;101973.63;5035825;28;20017;-87
2022/01/24 07:11:53;;;;;;;6.40;4.20;;;;;;;3.42;100.00;101977.22;5034809;28;20022;-86
2022/01/24 07:14:19;;;;;;;7.00;4.15;;;;;;;3.40;100.00;101978.91;5036578;28;20044;-87
2022/01/24 07:19:27;;;;;;;8.98;4.88;;;;;;;3.37;100.00;101986.75;5036283;28;20470;-87
2022/01/24 07:21:57;;;;;;;7.63;5.30;;;;;;;3.38;100.00;101991.16;5034579;28;20485;-87
2022/01/24 07:24:23;;;;;;;7.65;5.22;;;;;;;3.35;100.00;101985.84;5034455;28;20044;-86
2022/01/24 07:26:49;;;;;;;8.68;5.82;;;;;;;3.35;100.00;101996.41;5036025;28;20064;-87
2022/01/24 07:29:14;;;;;;;9.63;6.18;;;;;;;3.34;100.00;101997.22;5035689;28;20061;-87
2022/01/24 07:31:40;;;;;;;8.55;6.07;;;;;;;3.43;100.00;101997.47;5035849;28;20017;-87
2022/01/24 07:34:05;;;;;;;8.45;5.55;;;;;;;3.36;100.00;101998.16;5034281;28;20375;-87
2022/01/24 07:36:32;;;;;;;6.80;5.00;;;;;;;3.35;100.00;101999.03;5034404;28;20025;-86
2022/01/24 07:38:57;;;;;;;10.13;6.75;;;;;;;3.36;100.00;102006.09;5034147;28;20071;-87
2022/01/24 07:41:26;;;;;;;9.93;6.45;;;;;;;3.35;100.00;102012.25;5034106;28;20486;-87
2022/01/24 07:43:51;;;;;;;10.30;6.88;;;;;;;3.34;100.00;102007.78;5034088;28;20029;-87
2022/01/24 07:46:17;;;;;;;9.90;6.93;;;;;;;3.33;100.00;102006.91;5035633;28;20022;-87
2022/01/24 07:48:43;;;;;;;9.40;6.32;;;;;;;3.33;100.00;102008.63;5034051;28;20040;-87
2022/01/24 07:51:09;;;;;;;8.63;6.70;;;;;;;3.32;100.00;102004.22;5034964;28;20013;-87
2022/01/24 07:53:34;;;;;;;8.50;7.18;;;;;;;3.35;100.00;102007.81;5034040;28;20030;-87
2022/01/24 07:55:59;;;;;;;7.35;5.75;;;;;;;3.27;100.00;102003.19;5035439;28;20025;-85
2022/01/24 07:58:25;;;;;;;6.10;4.78;;;;;;;3.29;100.00;102004.13;5035082;28;20022;-86
2022/01/24 08:00:50;;;;;;;7.70;5.55;;;;;;;3.27;100.00;101997.91;5035254;28;20028;-87
2022/01/24 08:03:16;;;;;;;8.38;5.82;;;;;;;3.28;100.00;102000.59;5033670;28;20087;-86
2022/01/24 08:05:42;;;;;;;8.73;5.60;;;;;;;3.29;100.00;101997.13;5033715;28;20021;-87
2022/01/24 08:08:08;;;;;;;7.68;5.22;;;;;;;3.30;100.00;101992.72;5033656;28;20029;-87
2022/01/24 08:10:34;;;;;;;8.30;5.95;;;;;;;3.30;100.00;102001.53;5033776;28;20021;-87
2022/01/24 08:13:00;;;;;;;8.23;5.72;;;;;;;3.33;100.00;101998.06;5033492;28;20098;-87
2022/01/24 08:15:26;;;;;;;6.97;5.43;;;;;;;3.31;100.00;101991.84;5033550;28;20021;-86
2022/01/24 08:17:51;;;;;;;6.93;5.43;;;;;;;3.30;100.00;102001.53;5034980;28;20029;-87
2022/01/24 08:20:17;;;;;;;7.90;5.07;;;;;;;3.30;100.00;101992.72;5032453;28;20025;-87
2022/01/24 08:22:43;;;;;;;7.85;4.97;;;;;;;3.30;100.00;101995.38;5033725;28;20059;-85
2022/01/24 08:25:10;;;;;;;6.72;4.95;;;;;;;3.28;100.00;101991.78;5034247;28;20108;-87
2022/01/24 08:27:36;;;;;;;8.48;5.55;;;;;;;3.27;100.00;101995.28;5034745;28;20463;-87
2022/01/24 08:30:05;;;;;;;8.75;5.72;;;;;;;3.26;100.00;101997.03;5033724;28;20074;-87
2022/01/24 08:32:30;;;;;;;7.00;4.85;;;;;;;3.26;100.00;101999.66;5034990;28;20030;-87
2022/01/24 08:34:58;;;;;;;10.05;5.95;;;;;;;3.23;100.00;101992.53;5033507;28;20021;-86
2022/01/24 08:37:24;;;;;;;8.27;6.13;;;;;;;3.21;100.00;101991.63;5034601;28;20036;-86
2022/01/24 08:39:49;;;;;;;9.02;6.18;;;;;;;3.24;100.00;101989.06;5032992;28;20471;-86
2022/01/24 08:42:19;;;;;;;8.45;5.57;;;;;;;3.22;100.00;101996.03;5033317;28;20029;-86
2022/01/24 08:47:31;;;;;;;9.48;6.70;;;;;;;3.26;100.00;101996.13;5034915;28;20044;-86
2022/01/24 08:49:58;;;;;;;9.82;6.95;;;;;;;3.25;100.00;101995.22;5034151;28;20021;-86
2022/01/24 08:52:25;;;;;;;11.00;6.28;;;;;;;3.23;100.00;101997.81;5032957;28;20398;-87
2022/01/24 08:54:51;;;;;;;11.68;7.53;;;;;;;3.27;100.00;101995.28;5032909;28;20025;-86
2022/01/24 08:57:21;;;;;;;10.43;7.18;;;;;;;3.30;100.00;101998.88;5032806;28;20018;-87
2022/01/24 08:59:52;;;;;;;11.35;7.63;;;;;;;3.27;100.00;101993.53;5034271;28;20027;-86
2022/01/24 09:02:34;;;;;;;9.68;6.88;;;;;;;3.23;100.00;101992.53;5032600;28;20025;-86
2022/01/24 09:04:59;;;;;;;11.02;6.93;;;;;;;3.26;100.00;101991.75;5032956;28;20124;-87
2022/01/24 09:07:42;;;;;;;10.60;6.70;;;;;;;3.30;100.00;101998.00;5033784;28;20112;-87
2022/01/24 09:10:08;;;;;;;11.63;7.20;;;;;;;3.24;100.00;101994.34;5050029;28;20081;-88
2022/01/24 09:12:34;;;;;;;12.77;7.53;;;;;;;3.22;100.00;101993.38;5058401;28;20013;-89
2022/01/24 09:15:03;;;;;;;12.25;7.90;;;;;;;3.24;100.00;101993.44;5045713;28;20045;-87
2022/01/24 09:17:28;;;;;;;16.17;8.73;;;;;;;3.23;100.00;101997.81;5033092;28;20022;-87
2022/01/24 09:19:57;;;;;;;15.05;9.07;;;;;;;3.29;100.00;101996.22;5032612;28;20104;-86
2022/01/24 09:22:26;;;;;;;14.80;8.70;;;;;;;3.24;100.00;102004.91;5032338;28;20037;-87
2022/01/24 09:24:51;;;;;;;15.90;9.52;;;;;;;3.21;100.00;101999.53;5034142;28;20041;-87
2022/01/24 09:27:17;;;;;;;13.30;8.05;;;;;;;3.19;100.00;102005.63;5032448;28;20021;-86
2022/01/24 09:29:48;;;;;;;12.88;7.53;;;;;;;3.20;100.00;102008.28;5032842;28;20017;-86
2022/01/24 09:32:27;;;;;;;11.90;7.78;;;;;;;3.19;100.00;102001.25;5034232;28;20026;-87
2022/01/24 09:34:56;;;;;;;13.13;8.38;;;;;;;3.25;100.00;101997.84;5033109;28;20429;-87
2022/01/24 09:37:21;;;;;;;17.58;10.95;;;;;;;3.22;100.00;101996.03;5032242;28;20043;-86
2022/01/24 09:39:57;;;;;;;12.05;8.27;;;;;;;3.26;100.00;101998.75;5030364;28;20037;-87
2022/01/24 09:42:35;;;;;;;11.77;7.10;;;;;;;3.24;100.00;101998.72;5017550;28;20045;-87
2022/01/24 09:45:09;;;;;;;12.90;7.75;;;;;;;3.29;100.00;101991.84;5033169;28;20022;-87
2022/01/24 09:47:35;;;;;;;11.38;7.28;;;;;;;3.30;100.00;101998.88;5032548;28;20128;-87
2022/01/24 09:50:34;;;;;;;13.27;7.82;;;;;;;3.35;100.00;101996.41;5032046;28;20021;-87
2022/01/24 09:53:11;;;;;;;12.75;8.35;;;;;;;3.29;100.00;101993.56;5029844;28;20049;-87
2022/01/24 09:55:36;;;;;;;13.88;9.60;;;;;;;3.26;100.00;101996.13;5032034;28;20033;-86
2022/01/24 09:58:15;;;;;;;15.82;9.63;;;;;;;3.21;100.00;101994.25;5033731;28;20079;-85
2022/01/24 10:00:41;;;;;;;12.25;7.40;;;;;;;3.23;100.00;101991.66;5033465;28;20100;-86
2022/01/24 10:03:12;;;;;;;10.65;6.57;;;;;;;3.14;100.00;101994.94;5032214;28;20128;-86
2022/01/24 10:05:53;;;;;;;10.60;6.78;;;;;;;3.13;100.00;101995.78;5033474;28;20474;-87
2022/01/24 10:08:19;;;;;;;10.65;6.60;;;;;;;3.17;100.00;102002.91;5033708;28;20021;-86
2022/01/24 10:10:46;;;;;;;11.85;7.15;;;;;;;3.23;100.00;101997.81;5033451;28;20105;-86
2022/01/24 10:19:07;;;;;;;12.00;7.57;;;;;;;3.24;100.00;101996.09;5033505;28;20032;-86
2022/01/24 10:21:44;;;;;;;12.18;8.20;;;;;;;3.28;100.00;101995.31;5031759;28;20037;-86
2022/01/24 10:24:31;;;;;;;11.73;7.57;;;;;;;3.27;100.00;101998.81;5032223;28;20055;-87
2022/01/24 10:27:23;;;;;;;13.32;9.00;;;;;;;3.21;100.00;101999.53;5031788;28;20044;-86
2022/01/24 10:30:02;;;;;;;13.40;8.70;;;;;;;3.24;100.00;102002.28;5031828;28;20025;-86
2022/01/24 10:32:48;;;;;;;11.85;7.38;;;;;;;3.21;100.00;101994.25;5032618;28;20021;-86
2022/01/24 10:35:35;;;;;;;13.52;8.05;;;;;;;3.27;100.00;102000.56;5033219;28;20037;-86
2022/01/24 10:38:41;;;;;;;13.88;8.15;;;;;;;3.22;100.00;102000.44;5032261;28;20025;-87
2022/01/24 10:41:21;;;;;;;13.40;8.05;;;;;;;3.27;100.00;102001.47;5031759;28;20037;-86
2022/01/24 10:43:48;;;;;;;13.15;8.50;;;;;;;3.32;100.00;101999.84;5034615;28;20029;-86
2022/01/24 10:46:21;;;;;;;17.23;8.55;;;;;;;3.30;100.00;102000.66;5036776;28;20036;-86
2022/01/24 10:48:49;;;;;;;17.70;10.13;;;;;;;3.39;100.00;101998.25;5035602;28;20175;-86
2022/01/24 10:51:23;;;;;;;12.57;8.60;;;;;;;3.37;100.00;101997.31;5035477;28;20021;-87
2022/01/24 10:53:55;;;;;;;13.85;8.05;;;;;;;3.30;100.00;101992.72;5035418;28;20026;-86
2022/01/24 10:56:30;;;;;;;16.45;9.93;;;;;;;3.31;100.00;101997.13;5035446;28;20029;-86
2022/01/24 10:59:14;;;;;;;14.63;9.18;;;;;;;3.29;100.00;101990.94;5036491;28;20064;-86
2022/01/24 11:01:43;;;;;;;;;;;;;;;3.35;100.00;101985.84;5051558;28;20032;-87
2022/01/24 11:04:13;;;;;;;13.48;8.85;;;;;;;3.40;100.00;101989.47;5044431;28;20281;-86
2022/01/24 11:06:47;;;;;;;14.02;8.52;;;;;;;3.32;100.00;101988.38;5035214;28;20029;-87
2022/01/24 11:09:21;;;;;;;12.82;8.43;;;;;;;3.28;100.00;101994.41;5035473;28;20021;-86
2022/01/24 11:12:10;;;;;;;;;;;;;;;3.37;100.00;101992.03;5035833;28;20036;-86
2022/01/24 11:14:50;;;;;;;10.15;6.47;;;;;;;3.46;100.00;101979.09;5026004;28;19909;-86
2022/01/24 11:17:23;;;;;;;9.90;6.30;;;;;;;3.22;100.00;101980.19;5036979;28;20025;-86
2022/01/24 11:20:00;;;;;;;12.65;7.95;;;;;;;3.30;100.00;101987.44;5035717;28;20039;-86
2022/01/24 11:22:33;;;;;;;11.93;7.60;;;;;;;3.32;100.00;101977.81;5035591;28;20029;-87
2022/01/24 11:25:07;;;;;;;11.77;7.50;;;;;;;3.40;100.00;101989.47;5036038;28;20028;-86
2022/01/24 11:27:34;;;;;;;15.25;7.75;;;;;;;3.46;100.00;101986.09;5035389;28;20041;-86
2022/01/24 11:30:27;;;;;;;11.52;7.38;;;;;;;3.48;100.00;101987.03;5034652;28;20066;-86
2022/01/24 11:33:21;;;;;;;14.50;7.38;;;;;;;3.62;100.00;101984.78;5036709;28;20029;-87
2022/01/24 11:36:09;;;;;;;16.00;7.38;;;;;;;3.44;100.00;101980.78;5035292;28;20510;-88
2022/01/24 11:39:00;;;;;;;14.10;8.52;;;;;;;3.46;100.00;101971.16;5035019;28;20025;-88
2022/01/24 11:42:01;;;;;;;13.18;7.93;;;;;;;3.65;100.00;101969.00;5034905;28;20104;-89
2022/01/24 11:45:04;;;;;;;15.88;9.68;;;;;;;3.66;100.00;101969.91;5035148;28;20037;-87
2022/01/24 11:47:33;;;;;;;14.70;8.80;;;;;;;3.64;100.00;101964.56;5034465;28;20030;-85
2022/01/24 11:49:59;;;;;;;14.13;9.50;;;;;;;3.55;100.00;101972.25;5034584;28;20017;-86
2022/01/24 11:52:49;;;;;;;;;;;;;;;;;;;;;
2022/01/24 11:57:45;;;;;;;13.93;8.43;;;;;;;3.59;100.00;101974.13;5035164;28;20063;-72
2022/01/24 12:00:10;;;;;;;14.02;8.50;;;;;;;3.53;100.00;101968.69;5035007;28;20025;-72
2022/01/24 12:02:42;;;;;;;20.88;9.13;;;;;;;3.49;100.00;101972.09;5034878;28;20078;-73
2022/01/24 12:05:16;;;;;;;16.13;10.13;;;;;;;3.44;100.00;101966.69;5051517;22;20049;-85
2022/01/24 12:07:57;;;;;;;14.90;8.80;;;;;;;3.40;100.00;101964.81;5015606;28;20030;-84
2022/01/24 12:10:29;;;;;;;13.32;8.88;;;;;;;3.58;100.00;101961.78;5015342;28;20021;-85
2022/01/24 12:13:01;;;;;;;12.48;8.25;;;;;;;3.33;100.00;101956.72;5015588;28;20076;-84
2022/01/24 12:15:41;;;;;;;15.73;8.57;;;;;;;3.42;100.00;101945.53;4994643;28;20113;-85
2022/01/24 12:18:12;;;;;;;14.27;8.88;;;;;;;3.39;100.00;101944.53;4996170;28;20030;-82
2022/01/24 12:20:37;;;;;;;14.13;8.02;;;;;;;3.31;100.00;101944.34;4994757;28;20038;-82
2022/01/24 12:23:19;;;;;;;14.00;8.93;;;;;;;3.33;100.00;101946.16;4994760;28;20036;-83
2022/01/24 12:25:49;;;;;;;17.63;9.50;;;;;;;3.39;100.00;101940.16;4994477;28;20456;-83
2022/01/24 12:28:16;;;;;;;14.27;8.60;;;;;;;3.45;100.00;101940.31;4994564;28;20092;-83
2022/01/24 12:31:03;;;;;;;13.60;8.10;;;;;;;3.37;100.00;101936.59;4994523;28;20058;-83
2022/01/24 12:33:39;;;;;;;14.43;8.68;;;;;;;3.39;100.00;101939.25;4997897;28;20026;-82
2022/01/24 12:36:15;;;;;;;13.38;8.57;;;;;;;3.40;100.00;101930.50;4996241;28;20122;-82
2022/01/24 12:38:52;;;;;;;12.52;8.20;;;;;;;3.38;100.00;101938.34;4994512;28;20022;-83
2022/01/24 12:41:20;;;;;;;14.05;8.88;;;;;;;3.45;100.00;101927.09;4996049;28;20456;-82
2022/01/24 12:43:56;;;;;;;17.60;9.00;;;;;;;3.41;100.00;101938.44;4994703;28;20048;-82
2022/01/24 12:46:27;;;;;;;12.75;8.60;;;;;;;3.45;100.00;101939.44;4994731;28;20026;-83
2022/01/24 12:48:58;;;;;;;13.52;8.25;;;;;;;3.44;100.00;101933.25;4995239;28;20436;-82
2022/01/24 12:51:25;;;;;;;18.20;9.18;;;;;;;3.45;100.00;101929.75;4996319;28;20061;-82
2022/01/24 12:53:52;;;;;;;12.63;8.50;;;;;;;3.42;100.00;101937.59;4995104;28;20022;-82
2022/01/24 12:56:23;;;;;;;14.80;8.93;;;;;;;3.43;100.00;101931.44;4996438;28;20080;-82
2022/01/24 12:58:49;;;;;;;13.75;8.68;;;;;;;3.25;100.00;101931.84;4994995;28;20026;-83
2022/01/24 13:01:23;;;;;;;13.70;8.70;;;;;;;3.27;100.00;101934.56;4996275;28;20077;-82
2022/01/24 13:03:57;;;;;;;14.90;9.18;;;;;;;3.30;100.00;101934.63;4996299;28;20439;-82
2022/01/24 13:06:24;;;;;;;14.98;9.57;;;;;;;3.32;100.00;101932.94;4995917;28;20030;-81
2022/01/24 13:08:52;;;;;;;13.82;9.00;;;;;;;3.28;100.00;101926.66;4997018;28;20034;-83
2022/01/24 13:11:17;;;;;;;15.45;9.23;;;;;;;3.32;100.00;101917.09;5010141;28;20078;-86
2022/01/24 13:14:07;;;;;;;18.33;10.02;;;;;;;3.49;100.00;101914.88;5016971;28;20030;-83
2022/01/24 13:23:12;;;;;;;14.25;8.50;;;;;;;3.50;100.00;101911.41;4998394;28;20202;-82
2022/01/24 13:25:41;;;;;;;14.73;9.10;;;;;;;3.43;100.00;101907.69;4995091;28;20035;-81
2022/01/24 13:28:11;;;;;;;14.43;8.63;;;;;;;3.40;100.00;101910.22;4997104;28;20078;-82
2022/01/24 13:30:42;;;;;;;12.13;8.35;;;;;;;3.29;100.00;101912.63;4996921;28;20014;-81
2022/01/24 13:33:11;;;;;;;15.35;8.55;;;;;;;3.26;100.00;101903.72;4995437;28;20038;-82
2022/01/24 13:35:42;;;;;;;16.20;8.80;;;;;;;3.33;100.00;101905.66;4995468;28;20029;-82
2022/01/24 13:38:09;;;;;;;13.82;8.90;;;;;;;3.27;100.00;101908.16;4997581;28;20055;-83